METAR Data
IDs: Format: Raw Decoded Include TAF

Data at: 1604 UTC 17 Nov 2019

KSYN 171555Z AUTO 28006KT 10SM OVC026 04/02 A2990 RMK AO2 T00350020
KSYN 171535Z AUTO 28006KT 7SM OVC026 04/03 A2989 RMK AO2 T00350025
KSYN 171515Z AUTO 29006KT 5SM BR OVC024 03/02 A2989 RMK AO2 T00330023
KSYN 171455Z AUTO 28006KT 5SM BR SCT009 BKN024 OVC032 03/02 A2989 RMK AO2 T00330023
KSYN 171435Z AUTO 28006KT 4SM BR SCT009 BKN020 OVC032 03/02 A2990 RMK AO2 T00290020
KSYN 171415Z AUTO 26004KT 3SM BR BKN007 OVC020 03/02 A2990 RMK AO2 T00270020
KSYN 171356Z AUTO 25004KT 3SM BR OVC007 03/02 A2989 RMK AO2 T00260018
KSYN 171355Z AUTO 25004KT 3SM BR OVC007 03/02 A2989 RMK AO2 T00260018
KSYN 171336Z AUTO 25003KT 3SM BR OVC007 03/02 A2989 RMK AO2 T00260018
KSYN 171335Z AUTO 24003KT 3SM BR OVC007 03/02 A2989 RMK AO2 T00250017
KSYN 171316Z AUTO 23004KT 4SM BR BKN007 OVC016 03/02 A2988 RMK AO2 T00250017
KSYN 171315Z AUTO 23004KT 4SM BR BKN007 OVC016 03/02 A2989 RMK AO2 T00250017
KSYN 171256Z AUTO 22004KT 4SM BR BKN007 BKN016 OVC029 02/02 A2988 RMK AO2 T00220015
KSYN 171255Z AUTO 22004KT 4SM BR BKN007 BKN016 OVC029 02/02 A2988 RMK AO2 T00220015
KSYN 171235Z AUTO 22004KT 3SM BR OVC007 02/01 A2989 RMK AO2 T00210013
KSYN 171216Z AUTO 22005KT 3SM BR BKN007 BKN012 OVC024 02/01 A2989 RMK AO2 T00210012
KSYN 171215Z AUTO 22005KT 3SM BR BKN007 BKN012 OVC024 02/01 A2989 RMK AO2 T00200012
KSYN 171155Z AUTO 21004KT 3SM BR SCT007 BKN014 OVC024 02/01 A2990 RMK AO2 60007 70007 T00210012 10035 20020
KSYN 171135Z AUTO 20004KT 4SM BR BKN016 BKN032 OVC049 02/01 A2990 RMK AO2 T00200010
KSYN 171115Z AUTO 19007KT 4SM -RA SCT031 BKN048 OVC055 02/01 A2989 RMK AO2 T00200009
KSYN 171055Z AUTO 18007KT 3SM RA SCT031 SCT038 OVC047 02/01 A2990 RMK AO2 P0003 T00200008
KSYN 171036Z AUTO 20005KT 3SM RA SCT033 BKN041 OVC049 02/01 A2990 RMK AO2 P0002 T00200008
KSYN 171035Z AUTO 20005KT 3SM RA SCT033 BKN041 OVC049 02/01 A2990 RMK AO2 P0002 T00200008
KSYN 171016Z AUTO 19008KT 4SM RA BKN039 OVC047 02/01 A2991 RMK AO2 P0001 T00210008
KSYN 171015Z AUTO 19007KT 4SM RA BKN039 OVC047 02/01 A2991 RMK AO2 P0001 T00210008
KSYN 170956Z AUTO 19008KT 4SM -RA BKN041 OVC049 02/01 A2991 RMK AO2 T00210007
KSYN 170955Z AUTO 19007KT 4SM -RA BKN041 OVC049 02/01 A2991 RMK AO2 T00210007
KSYN 170936Z AUTO 19010KT 5SM DZ OVC039 02/01 A2992 RMK AO2 T00220007
KSYN 170935Z AUTO 18011KT 5SM DZ OVC039 02/01 A2991 RMK AO2 T00220007
KSYN 170915Z AUTO 18008KT 5SM -DZ OVC039 02/01 A2992 RMK AO2 T00220007
KSYN 170856Z AUTO 18007KT 5SM RA OVC041 02/01 A2993 RMK AO2 P0002 60003 T00220007
KSYN 170855Z AUTO 18007KT 5SM RA OVC041 02/01 A2993 RMK AO2 P0002 60003 T00220007
KSYN 170835Z AUTO 19007KT 5SM RA OVC043 02/01 A2994 RMK AO2 P0001 T00220007
KSYN 170815Z AUTO 18006KT 5SM -RA SCT036 OVC043 03/01 A2994 RMK AO2 T00250006
KSYN 170755Z AUTO 19008KT 5SM -RA SCT026 BKN040 OVC055 03/01 A2994 RMK AO2 P0001 T00270007
KSYN 170735Z AUTO 18008KT 5SM RA SCT026 BKN033 OVC065 03/01 A2994 RMK AO2 T00280006
KSYN 170716Z AUTO 18008KT 7SM DZ SCT034 SCT046 OVC075 03/00 A2995 RMK AO2 T00300002
KSYN 170715Z AUTO 18009KT 7SM DZ SCT034 SCT046 OVC075 03/00 A2995 RMK AO2 T00300002
KSYN 170655Z AUTO 18009KT 7SM -RA SCT034 BKN075 OVC085 03/00 A2995 RMK AO2 T00310000
KSYN 170636Z AUTO 18009KT 7SM SCT060 SCT075 OVC085 03/00 A2996 RMK AO2 T00320000
KSYN 170635Z AUTO 19009KT 7SM SCT060 SCT075 OVC085 03/00 A2996 RMK AO2 T00330000
KSYN 170615Z AUTO 18011KT 10SM SCT050 BKN075 OVC085 03/00 A2996 RMK AO2 T00341001
KSYN 170556Z AUTO 18012G17KT 7SM SCT075 OVC090 03/00 A2996 RMK AO2 T00320000 10041 20020 400770010
KSYN 170555Z AUTO 17011G17KT 7SM SCT075 OVC090 03/00 A2996 RMK AO2 T00320000 10041 20020 400770010
KSYN 170536Z AUTO 18012KT 7SM BKN090 OVC110 03/00 A2997 RMK AO2 T00321001
KSYN 170535Z AUTO 18013KT 7SM BKN090 OVC110 03/00 A2997 RMK AO2 T00311001
KSYN 170515Z AUTO 17013KT 7SM OVC100 03/00 A2997 RMK AO2 T00301002
KSYN 170456Z AUTO 18012G19KT 7SM BKN110 03/00 A2997 RMK AO2 T00301003
KSYN 170455Z AUTO 17012G19KT 7SM BKN110 03/00 A2997 RMK AO2 T00301003
KSYN 170435Z AUTO 17014G19KT 7SM SCT110 03/00 A2998 RMK AO2 T00281004
KSYN 170416Z AUTO 17013G18KT 7SM CLR 03/00 A2998 RMK AO2 T00281003
KSYN 170415Z AUTO 18014G18KT 7SM CLR 03/00 A2998 RMK AO2 T00271003
KSYN 170356Z AUTO 18013KT 7SM CLR 03/00 A2999 RMK AO2 T00281002
KSYN 170355Z AUTO 17012G18KT 7SM CLR 03/00 A2999 RMK AO2 T00281001
KSYN 170335Z AUTO 18014G19KT 7SM SCT120 03/00 A3000 RMK AO2 T00270000
KSYN 170316Z AUTO 18013G19KT 7SM CLR 02/00 A3000 RMK AO2 T00240000
KSYN 170315Z AUTO 18011G16KT 7SM CLR 02/00 A3001 RMK AO2 T00230000
KSYN 170255Z AUTO 17009KT 7SM CLR 02/00 A3001 RMK AO2 T00201001
KSYN 170236Z AUTO 17009KT 7SM CLR 02/00 A3002 RMK AO2 T00201001
KSYN 170235Z AUTO 17009KT 7SM CLR 02/00 A3002 RMK AO2 T00201001
KSYN 170216Z AUTO 17008KT 7SM CLR 02/00 A3002 RMK AO2 T00210000
KSYN 170215Z AUTO 17008KT 7SM CLR 02/00 A3002 RMK AO2 T00210000
KSYN 170155Z AUTO 17007KT 7SM CLR 02/00 A3003 RMK AO2 T00210000
KSYN 170135Z AUTO 17010G14KT 7SM CLR 03/00 A3003 RMK AO2 T00250000
KSYN 170116Z AUTO 16010KT 7SM CLR 03/00 A3004 RMK AO2 T00260000
KSYN 170115Z AUTO 16010KT 7SM CLR 03/00 A3004 RMK AO2 T00260000
KSYN 170055Z AUTO 17008KT 10SM CLR 03/00 A3004 RMK AO2 T00300000
KSYN 170035Z AUTO 17009G15KT 10SM CLR 04/00 A3004 RMK AO2 T00350001
KSYN 170016Z AUTO 17008KT 10SM CLR 04/00 A3003 RMK AO2 T00370001
KSYN 170015Z AUTO 17008KT 10SM CLR 04/00 A3003 RMK AO2 T00370001
KSYN 162355Z AUTO 17013G20KT 10SM CLR 04/00 A3002 RMK AO2 T00410002 10077 20041
KSYN 162335Z AUTO 16009G16KT 10SM CLR 05/00 A3001 RMK AO2 T00460003
KSYN 162316Z AUTO 15008KT 10SM CLR 05/00 A3001 RMK AO2 T00500003
KSYN 162315Z AUTO 15009KT 10SM CLR 05/00 A3001 RMK AO2 T00500003
KSYN 162256Z AUTO 15010G15KT 10SM CLR 05/00 A3001 RMK AO2 T00530002
KSYN 162255Z AUTO 15011G15KT 10SM CLR 05/00 A3001 RMK AO2 T00530002
KSYN 162235Z AUTO 15011G19KT 10SM CLR 06/00 A3000 RMK AO2 T00560001
KSYN 162216Z AUTO 15010G17KT 10SM CLR 06/00 A3000 RMK AO2 T00610001
KSYN 162215Z AUTO 15012G17KT 10SM CLR 06/00 A3000 RMK AO2 T00610002